createdAt,value
2022-09-30T00:01:16.173Z,4.15
2022-09-30T00:04:01.930Z,4.10
2022-09-30T00:06:48.085Z,4.20
2022-09-30T00:09:33.582Z,4.10
2022-09-30T00:12:19.586Z,4.82
2022-09-30T00:15:05.568Z,4.07
2022-09-30T00:17:50.811Z,5.30
2022-09-30T00:20:36.235Z,3.78
2022-09-30T00:23:23.207Z,4.20
2022-09-30T00:26:12.394Z,3.75
2022-09-30T00:28:59.430Z,3.67
2022-09-30T00:31:44.909Z,4.22
2022-09-30T00:34:30.206Z,3.58
2022-09-30T00:37:16.742Z,4.03
2022-09-30T00:40:02.196Z,3.80
2022-09-30T00:42:47.952Z,3.95
2022-09-30T00:45:33.405Z,3.80
2022-09-30T00:48:39.294Z,4.43
2022-09-30T00:51:35.415Z,3.42
2022-09-30T00:54:24.752Z,3.65
2022-09-30T00:57:09.870Z,3.90
2022-09-30T00:59:55.238Z,3.72
2022-09-30T01:02:40.499Z,4.00
2022-09-30T01:05:26.951Z,4.35
2022-09-30T01:08:12.867Z,4.22
2022-09-30T01:10:58.087Z,4.40
2022-09-30T01:13:46.351Z,4.00
2022-09-30T01:17:20.671Z,4.20
2022-09-30T01:20:35.712Z,3.85
2022-09-30T01:23:37.756Z,4.57
2022-09-30T01:26:37.123Z,3.88
2022-09-30T01:29:48.113Z,3.70
2022-09-30T01:32:50.533Z,4.30
2022-09-30T01:35:51.085Z,3.97
2022-09-30T01:39:04.004Z,3.83
2022-09-30T01:41:55.387Z,4.15
2022-09-30T01:45:13.202Z,4.60
2022-09-30T01:48:14.435Z,4.03
2022-09-30T01:51:07.682Z,4.18
2022-09-30T01:54:07.495Z,4.90
2022-09-30T01:56:58.821Z,4.03
2022-09-30T01:59:49.773Z,4.53
2022-09-30T02:02:59.373Z,4.72
2022-09-30T02:05:57.782Z,4.43
2022-09-30T02:08:57.532Z,4.63
2022-09-30T02:11:43.412Z,4.40
2022-09-30T02:14:44.068Z,4.18
2022-09-30T02:17:40.541Z,4.82
2022-09-30T02:20:29.654Z,4.25
2022-09-30T02:23:28.975Z,4.63
2022-09-30T02:26:17.858Z,4.25
2022-09-30T02:29:07.064Z,4.25
2022-09-30T02:31:56.227Z,4.22
2022-09-30T02:34:56.471Z,4.43
2022-09-30T02:37:48.174Z,4.22
2022-09-30T02:40:48.150Z,4.18
2022-09-30T02:43:34.034Z,3.63
2022-09-30T02:46:25.530Z,3.83
2022-09-30T02:49:29.391Z,4.13
2022-09-30T02:52:27.751Z,3.92
2022-09-30T02:55:19.063Z,3.60
2022-09-30T02:58:16.864Z,4.18
2022-09-30T03:01:02.684Z,4.22
2022-09-30T03:04:00.621Z,4.28
2022-09-30T03:06:45.935Z,3.83
2022-09-30T03:09:31.371Z,3.90
2022-09-30T03:12:31.066Z,3.78
2022-09-30T03:15:30.004Z,4.63
2022-09-30T03:18:30.330Z,4.03
2022-09-30T03:21:18.549Z,3.63
2022-09-30T03:24:24.781Z,3.83
2022-09-30T03:27:33.165Z,3.22
2022-09-30T03:30:24.577Z,3.90
2022-09-30T03:33:37.290Z,3.40
2022-09-30T03:36:45.604Z,3.70
2022-09-30T03:39:53.184Z,3.05
2022-09-30T03:42:47.444Z,3.58
2022-09-30T03:45:42.141Z,3.72
2022-09-30T03:48:29.351Z,3.42
2022-09-30T03:51:16.016Z,4.35
2022-09-30T03:54:01.117Z,4.50
2022-09-30T03:56:46.482Z,3.25
2022-09-30T03:59:31.961Z,3.83
2022-09-30T04:02:17.369Z,3.35
2022-09-30T04:05:02.757Z,3.33
2022-09-30T04:07:48.076Z,3.78
2022-09-30T04:10:33.446Z,3.60
2022-09-30T04:13:18.800Z,3.35
2022-09-30T04:16:06.190Z,3.47
2022-09-30T04:18:51.882Z,3.80
2022-09-30T04:21:37.258Z,3.92
2022-09-30T04:24:23.975Z,3.20
2022-09-30T04:27:09.307Z,4.68
2022-09-30T04:29:54.600Z,3.45
2022-09-30T04:32:45.566Z,3.88
2022-09-30T04:35:31.134Z,4.15
2022-09-30T04:38:16.531Z,3.75
2022-09-30T04:41:05.359Z,4.40
2022-09-30T04:43:50.421Z,5.38
2022-09-30T04:46:37.069Z,4.55
2022-09-30T04:49:24.128Z,3.88
2022-09-30T04:52:09.611Z,3.42
2022-09-30T04:54:54.896Z,4.65
2022-09-30T04:57:43.490Z,3.90
2022-09-30T05:00:28.786Z,3.90
2022-09-30T05:03:14.983Z,5.85
2022-09-30T05:06:00.818Z,6.75
2022-09-30T05:08:46.765Z,6.47
2022-09-30T05:11:32.326Z,6.18
2022-09-30T05:14:17.798Z,6.47
2022-09-30T05:17:02.915Z,4.95
2022-09-30T05:19:48.197Z,5.00
2022-09-30T05:22:33.394Z,4.65
2022-09-30T05:25:18.777Z,3.67
2022-09-30T05:28:04.307Z,3.40
2022-09-30T05:30:54.452Z,4.28
2022-09-30T05:33:41.694Z,3.22
2022-09-30T05:36:26.975Z,4.07
2022-09-30T05:39:12.403Z,3.22
2022-09-30T05:41:58.543Z,3.63
2022-09-30T05:44:43.933Z,3.40
2022-09-30T05:47:29.322Z,3.58
2022-09-30T05:50:14.821Z,3.20
2022-09-30T05:53:00.861Z,3.45
2022-09-30T05:55:47.489Z,3.50
2022-09-30T05:58:32.811Z,3.88
2022-09-30T06:01:17.899Z,4.35
2022-09-30T06:04:03.399Z,4.30
2022-09-30T06:06:48.660Z,4.50
2022-09-30T06:09:34.076Z,3.97
2022-09-30T06:12:19.504Z,5.22
2022-09-30T06:15:05.888Z,5.93
2022-09-30T06:17:54.663Z,5.03
2022-09-30T06:20:40.146Z,4.80
2022-09-30T06:23:26.330Z,5.32
2022-09-30T06:26:12.987Z,4.75
2022-09-30T06:28:58.307Z,4.55
2022-09-30T06:31:43.691Z,5.32
2022-09-30T06:34:29.155Z,4.47
2022-09-30T06:37:16.015Z,4.63
2022-09-30T06:40:01.758Z,4.57
2022-09-30T06:42:48.272Z,4.82
2022-09-30T06:45:35.588Z,4.93
2022-09-30T06:48:33.672Z,5.07
2022-09-30T06:51:22.509Z,5.15
2022-09-30T06:54:08.969Z,5.30
2022-09-30T06:56:57.335Z,6.20
2022-09-30T06:59:45.796Z,4.60
2022-09-30T07:02:31.158Z,4.90
2022-09-30T07:05:17.173Z,5.88
2022-09-30T07:08:02.927Z,5.28
2022-09-30T07:10:48.153Z,5.35
2022-09-30T07:13:33.746Z,4.40
2022-09-30T07:16:21.208Z,3.47
2022-09-30T07:19:10.062Z,3.63
2022-09-30T07:21:55.445Z,3.35
2022-09-30T07:24:40.816Z,3.05
2022-09-30T07:27:27.891Z,3.67
2022-09-30T07:30:22.783Z,3.63
2022-09-30T07:33:16.303Z,4.30
2022-09-30T07:36:03.867Z,5.00
2022-09-30T07:38:51.407Z,5.05
2022-09-30T07:41:39.499Z,5.43
2022-09-30T07:44:26.827Z,5.38
2022-09-30T07:47:12.082Z,4.18
2022-09-30T07:49:57.452Z,4.25
2022-09-30T07:52:42.962Z,3.92
2022-09-30T07:55:28.109Z,4.22
2022-09-30T07:58:13.496Z,4.78
2022-09-30T08:00:59.447Z,4.30
2022-09-30T08:03:45.000Z,4.93
2022-09-30T08:06:31.139Z,4.03
2022-09-30T08:09:19.163Z,4.10
2022-09-30T08:12:05.330Z,4.65
2022-09-30T08:14:50.369Z,4.38
2022-09-30T08:17:35.753Z,4.90
2022-09-30T08:20:22.628Z,4.90
2022-09-30T08:23:08.040Z,4.50
2022-09-30T08:25:59.847Z,4.70
2022-09-30T08:28:48.826Z,4.63
2022-09-30T08:31:34.117Z,4.82
2022-09-30T08:34:19.761Z,4.90
2022-09-30T08:37:09.066Z,4.43
2022-09-30T08:39:55.122Z,4.05
2022-09-30T08:42:57.529Z,4.68
2022-09-30T08:49:25.943Z,4.10
2022-09-30T08:52:37.322Z,3.88
2022-09-30T08:55:39.847Z,4.95
2022-09-30T08:58:38.729Z,4.07
2022-09-30T09:01:38.153Z,4.50
2022-09-30T09:04:23.553Z,3.83
2022-09-30T09:07:41.094Z,4.43
2022-09-30T09:10:27.605Z,4.30
2022-09-30T09:13:25.726Z,4.40
2022-09-30T09:16:29.319Z,4.32
2022-09-30T09:19:23.346Z,4.93
2022-09-30T09:22:10.911Z,4.43
2022-09-30T09:24:56.800Z,4.40
2022-09-30T09:27:49.940Z,4.07
2022-09-30T09:30:45.215Z,3.80
2022-09-30T09:33:33.457Z,4.10
2022-09-30T09:36:38.387Z,4.35
2022-09-30T09:39:50.890Z,3.70
2022-09-30T09:42:54.431Z,3.85
2022-09-30T09:45:48.373Z,3.50
2022-09-30T09:48:35.438Z,3.50
2022-09-30T09:51:34.517Z,3.83
2022-09-30T09:54:22.150Z,3.70
2022-09-30T09:57:09.420Z,3.78
2022-09-30T10:00:22.572Z,3.42
2022-09-30T10:03:18.290Z,3.25
2022-09-30T10:06:08.580Z,3.15
2022-09-30T10:08:55.937Z,3.38
2022-09-30T10:11:41.417Z,3.38
2022-09-30T10:14:26.787Z,3.30
2022-09-30T10:17:26.708Z,2.67
2022-09-30T10:20:14.952Z,2.65
2022-09-30T10:23:03.043Z,2.90
2022-09-30T10:25:55.957Z,2.40
2022-09-30T10:28:59.648Z,2.72
2022-09-30T10:31:46.252Z,2.80
2022-09-30T10:34:36.220Z,2.30
2022-09-30T10:37:23.587Z,2.30
2022-09-30T10:40:16.493Z,2.17
2022-09-30T10:43:01.702Z,2.30
2022-09-30T10:46:06.981Z,2.20
2022-09-30T10:48:56.205Z,1.95
2022-09-30T10:51:46.105Z,1.90
2022-09-30T10:54:40.542Z,1.95
2022-09-30T10:57:32.011Z,1.50
2022-09-30T11:00:23.715Z,1.90
2022-09-30T11:03:16.942Z,1.55
2022-09-30T11:06:02.150Z,1.98
2022-09-30T11:09:02.074Z,1.75
2022-09-30T11:12:02.786Z,1.90
2022-09-30T11:15:03.302Z,1.80
2022-09-30T11:18:00.706Z,1.95
2022-09-30T11:21:02.173Z,1.80
2022-09-30T11:23:57.115Z,1.95
2022-09-30T11:27:05.869Z,1.70
2022-09-30T11:30:16.318Z,1.98
2022-09-30T11:33:24.853Z,1.50
2022-09-30T11:36:21.236Z,1.85
2022-09-30T11:39:25.199Z,1.58
2022-09-30T11:42:40.577Z,1.88
2022-09-30T11:45:50.353Z,1.63
2022-09-30T11:48:58.135Z,1.40
2022-09-30T11:51:49.536Z,1.33
2022-09-30T11:54:59.420Z,1.47
2022-09-30T11:58:36.088Z,1.33
2022-09-30T12:01:41.364Z,1.52
2022-09-30T12:04:35.468Z,1.70
2022-09-30T12:07:37.498Z,1.80
2022-09-30T12:10:32.727Z,6.65
2022-09-30T12:13:31.777Z,2.47
2022-09-30T12:16:21.227Z,1.52
2022-09-30T12:19:32.753Z,1.40
2022-09-30T12:22:24.090Z,1.60
2022-09-30T12:25:23.923Z,1.65
2022-09-30T12:28:54.368Z,1.70
2022-09-30T12:31:52.410Z,1.50
2022-09-30T12:34:37.623Z,1.23
2022-09-30T12:37:41.303Z,1.50
2022-09-30T12:40:52.435Z,1.67
2022-09-30T12:44:16.657Z,1.52
2022-09-30T12:47:07.815Z,1.52
2022-09-30T12:49:58.039Z,2.80
2022-09-30T12:52:44.385Z,2.10
2022-09-30T12:55:41.273Z,1.70
2022-09-30T12:58:31.632Z,2.08
2022-09-30T13:01:23.402Z,1.88
2022-09-30T13:04:08.725Z,1.92
2022-09-30T13:06:56.881Z,2.55
2022-09-30T13:10:06.747Z,13.52
2022-09-30T13:13:29.077Z,2.08
2022-09-30T13:16:15.053Z,3.00
2022-09-30T13:19:01.547Z,2.08
2022-09-30T13:21:47.340Z,2.25
2022-09-30T13:24:57.881Z,2.40
2022-09-30T13:28:11.124Z,2.15
2022-09-30T13:31:23.663Z,4.70
2022-09-30T13:34:21.274Z,3.28
2022-09-30T13:37:26.818Z,3.25
2022-09-30T13:40:19.223Z,3.03
2022-09-30T13:45:53.456Z,2.00
2022-09-30T13:48:42.551Z,2.30
2022-09-30T13:51:31.892Z,2.30
2022-09-30T13:54:37.427Z,4.72
2022-09-30T13:57:34.827Z,2.17
2022-09-30T14:00:22.353Z,5.45
2022-09-30T14:03:32.585Z,1.42
2022-09-30T14:06:45.385Z,1.80
2022-09-30T14:12:54.011Z,2.05
2022-09-30T14:16:16.188Z,1.52
2022-09-30T14:19:16.594Z,1.80
2022-09-30T14:22:08.723Z,1.83
2022-09-30T14:24:53.907Z,1.52
2022-09-30T14:27:52.303Z,1.35
2022-09-30T14:31:03.597Z,1.38
2022-09-30T14:33:50.423Z,1.70
2022-09-30T14:36:35.674Z,1.52
2022-09-30T14:39:26.071Z,1.38
2022-09-30T14:42:19.339Z,1.48
2022-09-30T14:45:06.300Z,1.40
2022-09-30T14:47:53.107Z,1.17
2022-09-30T14:50:47.267Z,1.17
2022-09-30T14:53:39.727Z,1.40
2022-09-30T14:56:35.398Z,1.20
2022-09-30T14:59:34.736Z,1.45
2022-09-30T15:02:20.859Z,1.48
2022-09-30T15:05:06.083Z,1.40
2022-09-30T15:07:51.455Z,1.42
2022-09-30T15:10:37.128Z,1.50
2022-09-30T15:13:25.219Z,1.10
2022-09-30T15:16:32.102Z,1.20
2022-09-30T15:19:19.361Z,1.55
2022-09-30T15:22:07.031Z,1.40
2022-09-30T15:24:53.719Z,1.45
2022-09-30T15:27:38.806Z,1.10
2022-09-30T15:30:29.107Z,1.30
2022-09-30T15:33:18.202Z,1.38
2022-09-30T15:36:24.092Z,1.67
2022-09-30T15:39:21.216Z,1.30
2022-09-30T15:42:06.587Z,1.40
2022-09-30T15:44:52.124Z,1.33
2022-09-30T15:47:54.433Z,1.95
2022-09-30T15:50:48.952Z,2.08
2022-09-30T15:53:37.328Z,1.25
2022-09-30T15:56:30.782Z,1.38
2022-09-30T15:59:16.418Z,1.20
2022-09-30T16:02:02.108Z,1.60
2022-09-30T16:04:53.998Z,1.88
2022-09-30T16:07:42.183Z,1.33
2022-09-30T16:10:29.059Z,1.45
2022-09-30T16:13:15.559Z,1.58
2022-09-30T16:16:02.153Z,1.70
2022-09-30T16:18:48.232Z,1.40
2022-09-30T16:21:50.955Z,1.60
2022-09-30T16:24:36.315Z,2.10
2022-09-30T16:27:29.815Z,1.73
2022-09-30T16:30:17.842Z,1.60
2022-09-30T16:33:06.072Z,1.45
2022-09-30T16:35:51.506Z,2.00
2022-09-30T16:38:37.181Z,2.05
2022-09-30T16:41:22.336Z,4.20
2022-09-30T16:44:07.858Z,6.10
2022-09-30T16:46:53.136Z,5.93
2022-09-30T16:49:38.774Z,5.13
2022-09-30T16:52:24.724Z,4.38
2022-09-30T16:55:10.090Z,5.20
2022-09-30T16:57:59.428Z,6.43
2022-09-30T17:00:45.275Z,6.43
2022-09-30T17:03:30.934Z,5.10
2022-09-30T17:06:18.900Z,4.78
2022-09-30T17:09:05.361Z,3.28
2022-09-30T17:11:53.176Z,2.30
2022-09-30T17:14:39.248Z,2.50
2022-09-30T17:17:24.779Z,2.20
2022-09-30T17:20:10.491Z,1.88
2022-09-30T17:22:55.876Z,2.88
2022-09-30T17:25:42.411Z,2.97
2022-09-30T17:28:27.729Z,2.50
2022-09-30T17:31:13.298Z,1.85
2022-09-30T17:33:58.688Z,2.20
2022-09-30T17:36:44.071Z,2.30
2022-09-30T17:39:29.284Z,1.92
2022-09-30T17:42:34.248Z,2.45
2022-09-30T17:45:19.912Z,2.10
2022-09-30T17:48:07.751Z,2.50
2022-09-30T17:50:54.714Z,2.45
2022-09-30T17:53:40.179Z,2.38
2022-09-30T17:56:25.431Z,2.60
2022-09-30T17:59:10.918Z,2.75
2022-09-30T18:01:56.609Z,2.45
2022-09-30T18:04:41.979Z,2.45
2022-09-30T18:07:27.908Z,2.22
2022-09-30T18:10:13.576Z,2.97
2022-09-30T18:12:59.629Z,2.40
2022-09-30T18:15:45.406Z,2.83
2022-09-30T18:18:30.658Z,2.88
2022-09-30T18:21:16.291Z,2.30
2022-09-30T18:24:02.659Z,2.97
2022-09-30T18:26:48.264Z,2.92
2022-09-30T18:29:33.658Z,2.53
2022-09-30T18:32:19.415Z,2.50
2022-09-30T18:35:12.171Z,2.65
2022-09-30T18:37:57.313Z,2.60
2022-09-30T18:40:43.709Z,2.45
2022-09-30T18:43:28.882Z,2.50
2022-09-30T18:46:16.004Z,2.40
2022-09-30T18:49:01.949Z,2.47
2022-09-30T18:51:48.560Z,2.30
2022-09-30T18:54:33.919Z,2.38
2022-09-30T18:57:19.019Z,2.20
2022-09-30T19:00:06.199Z,2.88
2022-09-30T19:02:52.402Z,2.25
2022-09-30T19:05:37.923Z,3.25
2022-09-30T19:08:24.556Z,4.32
2022-09-30T19:11:14.597Z,4.10
2022-09-30T19:14:02.482Z,4.68
2022-09-30T19:16:48.003Z,5.70
2022-09-30T19:19:38.931Z,5.85
2022-09-30T19:22:24.928Z,6.05
2022-09-30T19:25:16.568Z,4.80
2022-09-30T19:28:02.473Z,4.25
2022-09-30T19:30:48.348Z,5.70
2022-09-30T19:33:40.625Z,4.03
2022-09-30T19:36:39.863Z,4.25
2022-09-30T19:39:39.718Z,4.07
2022-09-30T19:42:29.739Z,4.20
2022-09-30T19:45:16.758Z,3.50
2022-09-30T19:48:03.173Z,3.08
2022-09-30T19:50:49.115Z,4.22
2022-09-30T19:53:41.461Z,3.90
2022-09-30T19:56:27.573Z,3.38
2022-09-30T19:59:12.974Z,4.53
2022-09-30T20:01:58.717Z,4.05
2022-09-30T20:04:45.456Z,4.32
2022-09-30T20:07:30.720Z,4.00
2022-09-30T20:10:16.280Z,3.45
2022-09-30T20:13:02.884Z,2.30
2022-09-30T20:15:50.832Z,2.40
2022-09-30T20:18:36.879Z,2.85
2022-09-30T20:21:22.297Z,2.65
2022-09-30T20:24:12.986Z,3.05
2022-09-30T20:26:58.244Z,2.90
2022-09-30T20:29:43.585Z,3.35
2022-09-30T20:32:30.748Z,3.63
2022-09-30T20:35:16.223Z,3.30
2022-09-30T20:38:01.574Z,3.17
2022-09-30T20:40:47.067Z,3.15
2022-09-30T20:43:33.376Z,3.72
2022-09-30T20:46:19.296Z,3.53
2022-09-30T20:49:04.759Z,3.72
2022-09-30T20:51:49.989Z,3.78
2022-09-30T20:54:35.872Z,3.63
2022-09-30T20:57:21.272Z,3.70
2022-09-30T21:00:07.523Z,3.72
2022-09-30T21:02:52.634Z,3.50
2022-09-30T21:05:38.674Z,3.63
2022-09-30T21:08:24.383Z,4.18
2022-09-30T21:11:10.890Z,3.95
2022-09-30T21:13:56.080Z,3.95
2022-09-30T21:16:42.398Z,3.85
2022-09-30T21:19:27.819Z,3.53
2022-09-30T21:22:13.213Z,3.45
2022-09-30T21:24:58.523Z,2.70
2022-09-30T21:27:47.851Z,3.42
2022-09-30T21:30:32.954Z,4.85
2022-09-30T21:33:19.108Z,3.95
2022-09-30T21:36:06.119Z,4.10
2022-09-30T21:38:51.990Z,4.00
2022-09-30T21:41:37.855Z,3.30
2022-09-30T21:44:23.247Z,3.97
2022-09-30T21:47:08.375Z,5.93
2022-09-30T21:49:53.754Z,4.20
2022-09-30T21:52:39.373Z,3.95
2022-09-30T21:55:24.735Z,3.97
2022-09-30T21:58:10.135Z,3.78
2022-09-30T22:01:01.056Z,3.92
2022-09-30T22:03:46.248Z,4.15
2022-09-30T22:06:32.223Z,3.60
2022-09-30T22:09:17.513Z,4.32
2022-09-30T22:12:08.544Z,3.60
2022-09-30T22:14:54.023Z,3.70
2022-09-30T22:17:39.526Z,3.28
2022-09-30T22:20:24.825Z,3.78
2022-09-30T22:23:10.542Z,3.35
2022-09-30T22:25:58.756Z,3.38
2022-09-30T22:28:45.400Z,3.85
2022-09-30T22:31:32.492Z,3.88
2022-09-30T22:34:36.732Z,3.90
2022-09-30T22:37:40.656Z,3.92
2022-09-30T22:40:26.584Z,4.93
2022-09-30T22:43:12.158Z,3.92
2022-09-30T22:46:08.388Z,3.88
2022-09-30T22:48:53.805Z,4.50
2022-09-30T22:51:39.331Z,4.50
2022-09-30T22:54:26.113Z,3.33
2022-09-30T22:57:12.297Z,3.80
2022-09-30T22:59:59.695Z,4.07
2022-09-30T23:02:45.113Z,3.45
2022-09-30T23:05:31.330Z,4.10
2022-09-30T23:08:16.560Z,4.15
2022-09-30T23:11:02.089Z,4.22
2022-09-30T23:13:47.165Z,4.30
2022-09-30T23:16:32.683Z,4.03
2022-09-30T23:19:18.922Z,4.30
2022-09-30T23:22:05.039Z,4.45
2022-09-30T23:24:50.621Z,5.50
2022-09-30T23:27:36.370Z,3.78
2022-09-30T23:30:21.864Z,4.65
2022-09-30T23:33:09.569Z,5.00
2022-09-30T23:35:59.866Z,4.53
2022-09-30T23:38:45.806Z,3.97
2022-09-30T23:41:32.712Z,4.38
2022-09-30T23:44:18.779Z,7.18
2022-09-30T23:47:19.035Z,5.57
2022-09-30T23:50:04.346Z,4.63
2022-09-30T23:52:50.004Z,4.57
2022-09-30T23:55:35.278Z,4.90
2022-09-30T23:58:20.947Z,5.28
